Time;durP1;ratioP1;P1;durP2;ratioP2;P2;SDS_P1;SDS_P2;PMS_P1;PMS_P2;Temp;Humidity;BMP_temperature;BMP_pressure;BME280_temperature;BME280_humidity;BME280_pressure;Samples;Min_cycle;Max_cycle;Signal;HPM_P1;HPM_P2
2022/03/09 00:02:11;;;;;;;17.15;10.38;;;;;;;;;;5050729;28;20056;-75
2022/03/09 00:04:38;;;;;;;16.75;8.63;;;;;;;;;;5041761;28;20029;-77
2022/03/09 00:07:04;;;;;;;17.75;10.13;;;;;;;;;;5049585;28;20083;-75
2022/03/09 00:09:30;;;;;;;20.30;9.80;;;;;;;;;;5035899;28;20042;-76
2022/03/09 00:11:56;;;;;;;18.30;9.05;;;;;;;;;;5049003;28;20059;-76
2022/03/09 00:14:22;;;;;;;16.58;8.90;;;;;;;;;;5041285;28;20048;-77
2022/03/09 00:16:50;;;;;;;18.80;9.35;;;;;;;;;;5051248;28;20386;-76
2022/03/09 00:19:16;;;;;;;20.85;9.32;;;;;;;;;;5044536;28;20038;-77
2022/03/09 00:21:42;;;;;;;18.50;9.63;;;;;;;;;;5044816;28;20466;-75
2022/03/09 00:24:09;;;;;;;16.00;8.90;;;;;;;;;;5051864;28;20040;-77
2022/03/09 00:26:35;;;;;;;16.67;9.45;;;;;;;;;;5049997;28;20478;-75
2022/03/09 00:29:01;;;;;;;18.00;10.23;;;;;;;;;;5052024;28;20059;-74
2022/03/09 00:31:27;;;;;;;19.00;9.25;;;;;;;;;;5049731;28;20025;-75
2022/03/09 00:33:53;;;;;;;17.95;9.73;;;;;;;;;;5050194;28;20033;-75
2022/03/09 00:36:19;;;;;;;17.70;9.35;;;;;;;;;;5051904;28;20025;-74
2022/03/09 00:38:45;;;;;;;16.45;8.85;;;;;;;;;;5050460;28;20036;-75
2022/03/09 00:41:11;;;;;;;16.58;9.73;;;;;;;;;;5051488;28;20108;-76
2022/03/09 00:43:37;;;;;;;16.30;9.80;;;;;;;;;;5050831;28;20021;-75
2022/03/09 00:46:03;;;;;;;15.73;8.55;;;;;;;;;;5051387;28;20379;-75
2022/03/09 00:48:29;;;;;;;14.93;8.68;;;;;;;;;;5051621;28;20096;-75
2022/03/09 00:50:55;;;;;;;16.05;8.95;;;;;;;;;;5051388;28;20068;-75
2022/03/09 00:53:21;;;;;;;14.77;9.32;;;;;;;;;;5052075;28;20040;-74
2022/03/09 00:55:47;;;;;;;16.13;9.45;;;;;;;;;;5050381;28;20067;-75
2022/03/09 00:58:13;;;;;;;14.68;8.70;;;;;;;;;;5052021;28;20049;-74
2022/03/09 01:00:39;;;;;;;15.90;9.18;;;;;;;;;;5051800;28;20075;-74
2022/03/09 01:03:05;;;;;;;17.02;9.18;;;;;;;;;;5041639;28;20490;-74
2022/03/09 01:05:31;;;;;;;12.73;7.97;;;;;;;;;;5032107;28;20029;-75
2022/03/09 01:07:57;;;;;;;17.70;9.88;;;;;;;;;;5031956;28;20018;-73
2022/03/09 01:10:23;;;;;;;15.88;8.80;;;;;;;;;;5031968;28;20033;-74
2022/03/09 01:12:49;;;;;;;16.10;8.45;;;;;;;;;;5048588;28;20029;-74
2022/03/09 01:15:15;;;;;;;15.95;8.55;;;;;;;;;;5052015;28;20537;-75
2022/03/09 01:17:41;;;;;;;15.82;9.07;;;;;;;;;;5049486;28;20017;-74
2022/03/09 01:20:07;;;;;;;13.82;8.30;;;;;;;;;;5044420;28;20033;-74
2022/03/09 01:22:34;;;;;;;20.92;10.02;;;;;;;;;;5051556;28;20029;-73
2022/03/09 01:25:01;;;;;;;15.32;8.73;;;;;;;;;;5045800;28;20025;-74
2022/03/09 01:27:27;;;;;;;16.20;9.50;;;;;;;;;;5032905;28;20467;-74
2022/03/09 01:29:53;;;;;;;19.05;10.35;;;;;;;;;;5035652;28;20017;-74
2022/03/09 01:32:21;;;;;;;13.85;8.45;;;;;;;;;;5042679;28;20043;-74
2022/03/09 01:34:47;;;;;;;18.38;10.02;;;;;;;;;;5051307;28;20486;-74
2022/03/09 01:37:13;;;;;;;15.25;8.30;;;;;;;;;;5043942;28;20064;-74
2022/03/09 01:39:39;;;;;;;15.50;9.23;;;;;;;;;;5041109;28;20093;-74
2022/03/09 01:42:05;;;;;;;14.82;8.75;;;;;;;;;;5032863;28;20033;-75
2022/03/09 01:44:31;;;;;;;13.35;8.07;;;;;;;;;;5034956;28;20021;-75
2022/03/09 01:46:57;;;;;;;20.08;9.90;;;;;;;;;;5035112;28;20031;-74
2022/03/09 01:49:23;;;;;;;14.23;9.02;;;;;;;;;;5034841;28;20355;-75
2022/03/09 01:51:51;;;;;;;17.25;9.63;;;;;;;;;;5035558;28;20032;-75
2022/03/09 01:54:17;;;;;;;16.17;9.43;;;;;;;;;;5034658;28;20025;-74
2022/03/09 01:56:43;;;;;;;15.40;8.52;;;;;;;;;;5035272;28;20075;-75
2022/03/09 01:59:11;;;;;;;19.48;9.00;;;;;;;;;;5034705;28;20089;-74
2022/03/09 02:01:38;;;;;;;13.60;8.48;;;;;;;;;;5035316;28;20037;-74
2022/03/09 02:04:04;;;;;;;19.25;9.25;;;;;;;;;;5034740;28;20123;-74
2022/03/09 02:06:31;;;;;;;13.10;8.60;;;;;;;;;;5049734;28;20032;-75
2022/03/09 02:11:43;;;;;;;15.10;9.40;;;;;;;;;;5053877;28;20488;-74
2022/03/09 02:14:27;;;;;;;15.63;8.85;;;;;;;;;;5055048;28;20535;-74
2022/03/09 02:16:53;;;;;;;13.23;8.30;;;;;;;;;;5054125;28;20053;-75
2022/03/09 02:19:20;;;;;;;14.80;8.57;;;;;;;;;;5054570;28;20040;-74
2022/03/09 02:21:46;;;;;;;17.88;8.55;;;;;;;;;;5054209;28;20021;-75
2022/03/09 02:24:13;;;;;;;15.23;8.93;;;;;;;;;;5054646;28;20100;-74
2022/03/09 02:26:39;;;;;;;13.52;8.18;;;;;;;;;;5054379;28;20462;-74
2022/03/09 02:29:05;;;;;;;14.25;8.13;;;;;;;;;;5054445;28;20021;-74
2022/03/09 02:31:31;;;;;;;14.55;9.02;;;;;;;;;;5054494;28;20017;-73
2022/03/09 02:33:57;;;;;;;18.73;9.00;;;;;;;;;;5052848;28;20021;-73
2022/03/09 02:36:23;;;;;;;16.00;8.77;;;;;;;;;;5054681;28;20355;-73
2022/03/09 02:38:49;;;;;;;13.85;8.27;;;;;;;;;;5054440;28;20094;-73
2022/03/09 02:41:15;;;;;;;16.80;9.00;;;;;;;;;;5053895;28;20115;-74
2022/03/09 02:43:41;;;;;;;14.68;9.00;;;;;;;;;;5054163;28;20043;-74
2022/03/09 02:46:07;;;;;;;14.00;8.25;;;;;;;;;;5054303;28;20465;-73
2022/03/09 02:48:33;;;;;;;15.75;8.25;;;;;;;;;;5054461;28;20032;-74
2022/03/09 02:50:59;;;;;;;21.63;8.38;;;;;;;;;;5051601;28;20057;-74
2022/03/09 02:53:25;;;;;;;16.38;8.98;;;;;;;;;;5052800;28;20386;-74
2022/03/09 02:55:51;;;;;;;15.73;8.65;;;;;;;;;;5054213;28;20029;-74
2022/03/09 02:58:17;;;;;;;14.65;8.90;;;;;;;;;;5053935;28;20028;-74
2022/03/09 03:00:43;;;;;;;13.50;7.70;;;;;;;;;;5037867;28;20038;-75
2022/03/09 03:03:09;;;;;;;19.92;8.85;;;;;;;;;;5034004;28;20422;-75
2022/03/09 03:05:35;;;;;;;12.55;8.00;;;;;;;;;;5031336;28;20101;-75
2022/03/09 03:08:01;;;;;;;13.98;8.02;;;;;;;;;;5033671;28;20418;-74
2022/03/09 03:10:27;;;;;;;13.88;8.20;;;;;;;;;;5033344;28;20030;-74
2022/03/09 03:12:54;;;;;;;15.98;7.95;;;;;;;;;;5034086;28;20463;-75
2022/03/09 03:15:20;;;;;;;16.52;8.02;;;;;;;;;;5033333;28;20097;-75
2022/03/09 03:17:46;;;;;;;15.52;7.45;;;;;;;;;;5032569;28;20022;-75
2022/03/09 03:20:12;;;;;;;15.93;8.38;;;;;;;;;;5033606;28;20399;-74
2022/03/09 03:22:38;;;;;;;16.55;8.55;;;;;;;;;;5032460;28;20023;-75
2022/03/09 03:25:04;;;;;;;15.93;8.27;;;;;;;;;;5031882;28;20104;-74
2022/03/09 03:27:30;;;;;;;14.77;7.50;;;;;;;;;;5032298;28;20093;-74
2022/03/09 03:29:56;;;;;;;16.13;8.00;;;;;;;;;;5033048;28;20455;-73
2022/03/09 03:32:23;;;;;;;16.45;8.25;;;;;;;;;;5033387;28;20097;-73
2022/03/09 03:34:48;;;;;;;14.88;8.15;;;;;;;;;;5032516;28;20026;-74
2022/03/09 03:37:14;;;;;;;13.48;7.60;;;;;;;;;;5032713;28;20018;-74
2022/03/09 03:39:40;;;;;;;15.70;7.78;;;;;;;;;;5032739;28;20468;-74
2022/03/09 03:42:07;;;;;;;14.07;9.02;;;;;;;;;;5033359;28;20034;-74
2022/03/09 03:44:33;;;;;;;19.77;8.23;;;;;;;;;;5032691;28;20378;-73
2022/03/09 03:46:59;;;;;;;14.48;7.63;;;;;;;;;;5033253;28;20033;-74
2022/03/09 03:49:25;;;;;;;14.48;7.88;;;;;;;;;;5032708;28;20022;-74
2022/03/09 03:51:51;;;;;;;11.25;7.53;;;;;;;;;;5033165;28;20027;-74
2022/03/09 03:54:17;;;;;;;14.60;8.20;;;;;;;;;;5032921;28;20025;-74
2022/03/09 03:56:43;;;;;;;14.93;8.30;;;;;;;;;;5032451;28;20479;-73
2022/03/09 03:59:09;;;;;;;15.65;8.00;;;;;;;;;;5032703;28;20040;-74
2022/03/09 04:01:35;;;;;;;19.33;10.70;;;;;;;;;;5032493;28;20037;-74
2022/03/09 04:04:00;;;;;;;17.70;8.18;;;;;;;;;;5033116;28;20030;-74
2022/03/09 04:06:26;;;;;;;16.52;7.72;;;;;;;;;;5032397;28;20516;-74
2022/03/09 04:08:52;;;;;;;14.63;8.10;;;;;;;;;;5032468;28;20030;-74
2022/03/09 04:11:18;;;;;;;13.45;7.95;;;;;;;;;;5032432;28;20029;-74
2022/03/09 04:13:44;;;;;;;13.05;8.13;;;;;;;;;;5032987;28;20398;-74
2022/03/09 04:16:11;;;;;;;12.70;7.38;;;;;;;;;;5032140;28;20025;-73
2022/03/09 04:18:37;;;;;;;13.32;8.30;;;;;;;;;;5032771;28;20036;-74
2022/03/09 04:21:03;;;;;;;16.40;8.07;;;;;;;;;;5031769;28;20037;-75
2022/03/09 04:23:29;;;;;;;14.85;8.30;;;;;;;;;;5032583;28;20072;-75
2022/03/09 04:25:55;;;;;;;14.18;7.72;;;;;;;;;;5032315;28;20075;-77
2022/03/09 04:28:21;;;;;;;13.30;7.72;;;;;;;;;;5031694;28;20356;-74
2022/03/09 04:30:47;;;;;;;15.35;8.73;;;;;;;;;;5032780;28;20565;-74
2022/03/09 04:33:14;;;;;;;15.15;7.82;;;;;;;;;;5030707;28;20030;-74
2022/03/09 04:35:40;;;;;;;11.80;6.97;;;;;;;;;;5031223;28;20030;-75
2022/03/09 04:38:06;;;;;;;13.43;7.40;;;;;;;;;;5032052;28;20033;-75
2022/03/09 04:40:32;;;;;;;16.00;8.60;;;;;;;;;;5032483;28;20033;-74
2022/03/09 04:42:58;;;;;;;15.27;7.75;;;;;;;;;;5031923;28;20021;-74
2022/03/09 04:45:24;;;;;;;13.43;7.45;;;;;;;;;;5032723;28;20087;-75
2022/03/09 04:47:50;;;;;;;12.98;7.82;;;;;;;;;;5037054;28;20458;-75
2022/03/09 04:50:16;;;;;;;16.00;8.00;;;;;;;;;;5051996;28;20052;-74
2022/03/09 04:52:42;;;;;;;17.75;8.57;;;;;;;;;;5051673;28;20025;-74
2022/03/09 04:55:08;;;;;;;18.10;8.32;;;;;;;;;;5051573;28;20017;-74
2022/03/09 04:57:36;;;;;;;16.10;8.55;;;;;;;;;;5054753;28;20029;-74
2022/03/09 05:00:03;;;;;;;15.98;8.18;;;;;;;;;;5055498;28;20037;-74
2022/03/09 05:02:29;;;;;;;16.98;7.57;;;;;;;;;;5054487;28;20021;-74
2022/03/09 05:04:55;;;;;;;13.75;8.10;;;;;;;;;;5055048;28;20466;-72
2022/03/09 05:07:21;;;;;;;15.85;8.40;;;;;;;;;;5055847;28;20095;-73
2022/03/09 05:09:47;;;;;;;15.20;8.20;;;;;;;;;;5055328;28;20402;-73
2022/03/09 05:12:13;;;;;;;15.45;8.18;;;;;;;;;;5055907;28;20021;-73
2022/03/09 05:14:39;;;;;;;15.00;8.40;;;;;;;;;;5055635;28;20103;-73
2022/03/09 05:17:05;;;;;;;13.52;7.53;;;;;;;;;;5055995;28;20462;-74
2022/03/09 05:19:31;;;;;;;14.27;8.05;;;;;;;;;;5054905;28;20028;-74
2022/03/09 05:21:57;;;;;;;19.20;8.50;;;;;;;;;;5055980;28;20557;-73
2022/03/09 05:24:23;;;;;;;13.25;7.50;;;;;;;;;;5055183;28;20108;-74
2022/03/09 05:26:49;;;;;;;15.02;8.20;;;;;;;;;;5056022;28;20025;-73
2022/03/09 05:29:15;;;;;;;14.88;7.97;;;;;;;;;;5055146;28;20108;-73
2022/03/09 05:31:42;;;;;;;15.52;8.45;;;;;;;;;;5055438;28;20053;-73
2022/03/09 05:34:08;;;;;;;15.50;8.75;;;;;;;;;;5054838;28;20032;-74
2022/03/09 05:36:34;;;;;;;16.70;7.85;;;;;;;;;;5054103;28;20032;-74
2022/03/09 05:39:00;;;;;;;14.40;8.52;;;;;;;;;;5055438;28;20517;-74
2022/03/09 05:41:26;;;;;;;20.77;9.60;;;;;;;;;;5054123;28;20504;-74
2022/03/09 05:43:52;;;;;;;15.13;7.72;;;;;;;;;;5034809;28;20025;-73
2022/03/09 05:46:18;;;;;;;18.05;8.80;;;;;;;;;;5034829;28;20128;-74
2022/03/09 05:48:44;;;;;;;16.48;9.00;;;;;;;;;;5035049;28;20029;-74
2022/03/09 05:51:10;;;;;;;21.60;8.43;;;;;;;;;;5034101;28;20030;-74
2022/03/09 05:53:37;;;;;;;16.42;8.68;;;;;;;;;;5035090;28;20052;-74
2022/03/09 05:56:03;;;;;;;18.48;8.85;;;;;;;;;;5034886;28;20072;-74
2022/03/09 05:58:29;;;;;;;17.23;9.70;;;;;;;;;;5035343;28;20108;-74
2022/03/09 06:00:55;;;;;;;19.98;9.40;;;;;;;;;;5034507;28;20486;-74
2022/03/09 06:03:21;;;;;;;20.30;9.18;;;;;;;;;;5034784;28;20030;-74
2022/03/09 06:05:47;;;;;;;17.88;8.80;;;;;;;;;;5034763;28;20470;-74
2022/03/09 06:08:14;;;;;;;20.27;10.60;;;;;;;;;;5034489;28;20039;-74
2022/03/09 06:10:40;;;;;;;18.00;8.90;;;;;;;;;;5034564;28;20036;-74
2022/03/09 06:13:05;;;;;;;18.42;9.80;;;;;;;;;;5034351;28;20022;-74
2022/03/09 06:15:32;;;;;;;22.85;10.30;;;;;;;;;;5034455;28;20101;-74
2022/03/09 06:17:58;;;;;;;19.60;9.68;;;;;;;;;;5034830;28;20183;-74
2022/03/09 06:20:25;;;;;;;16.30;8.88;;;;;;;;;;5034634;28;20088;-74
2022/03/09 06:22:52;;;;;;;19.08;8.60;;;;;;;;;;5033989;28;20115;-74
2022/03/09 06:25:18;;;;;;;17.90;9.68;;;;;;;;;;5033234;28;20386;-74
2022/03/09 06:27:49;;;;;;;21.98;10.02;;;;;;;;;;5034885;28;20025;-74
2022/03/09 06:30:15;;;;;;;22.27;9.45;;;;;;;;;;5033751;28;20033;-75
2022/03/09 06:32:42;;;;;;;22.63;9.35;;;;;;;;;;5033081;28;20474;-74
2022/03/09 06:35:08;;;;;;;23.42;10.15;;;;;;;;;;5033926;28;20032;-74
2022/03/09 06:37:34;;;;;;;23.88;10.10;;;;;;;;;;5050399;28;20040;-74
2022/03/09 06:40:01;;;;;;;25.42;8.90;;;;;;;;;;5054050;28;20112;-74
2022/03/09 06:42:27;;;;;;;25.35;9.85;;;;;;;;;;5054434;28;20032;-74
2022/03/09 06:44:53;;;;;;;16.95;9.27;;;;;;;;;;5053850;28;20429;-74
2022/03/09 06:47:19;;;;;;;19.55;9.27;;;;;;;;;;5052421;28;20139;-74
2022/03/09 06:49:46;;;;;;;21.80;9.73;;;;;;;;;;5054254;28;20025;-74
2022/03/09 06:52:13;;;;;;;21.95;9.30;;;;;;;;;;5054286;28;20025;-75
2022/03/09 06:54:39;;;;;;;18.85;9.63;;;;;;;;;;5053221;28;20507;-75
2022/03/09 06:57:05;;;;;;;21.65;10.77;;;;;;;;;;5046912;28;20039;-74
2022/03/09 06:59:31;;;;;;;19.95;9.43;;;;;;;;;;5040099;28;20026;-74
2022/03/09 07:01:57;;;;;;;21.60;9.85;;;;;;;;;;5032832;28;20454;-75
2022/03/09 07:04:23;;;;;;;22.85;9.93;;;;;;;;;;5032607;28;20598;-75
2022/03/09 07:06:49;;;;;;;20.60;9.15;;;;;;;;;;5034018;28;20029;-75
2022/03/09 07:09:15;;;;;;;20.55;9.95;;;;;;;;;;5034173;28;20447;-74
2022/03/09 07:11:41;;;;;;;21.25;10.05;;;;;;;;;;5033738;28;20029;-74
2022/03/09 07:14:07;;;;;;;17.88;9.57;;;;;;;;;;5034025;28;20025;-74
2022/03/09 07:16:34;;;;;;;21.05;10.00;;;;;;;;;;5034463;28;20078;-74
2022/03/09 07:19:00;;;;;;;19.65;10.00;;;;;;;;;;5040261;28;20388;-74
2022/03/09 07:21:26;;;;;;;23.48;10.20;;;;;;;;;;5053265;28;20068;-74
2022/03/09 07:23:52;;;;;;;31.40;12.10;;;;;;;;;;5053168;28;20025;-75
2022/03/09 07:26:18;;;;;;;24.58;10.93;;;;;;;;;;5035036;28;20026;-75
2022/03/09 07:28:44;;;;;;;21.92;10.77;;;;;;;;;;5033255;28;20026;-74
2022/03/09 07:31:10;;;;;;;24.02;10.65;;;;;;;;;;5045154;28;20119;-74
2022/03/09 07:33:37;;;;;;;21.80;10.52;;;;;;;;;;5053414;28;20069;-75
2022/03/09 07:36:03;;;;;;;22.80;11.50;;;;;;;;;;5045792;28;20034;-73
2022/03/09 07:38:29;;;;;;;22.23;11.68;;;;;;;;;;5032468;28;20360;-74
2022/03/09 07:40:56;;;;;;;26.83;11.68;;;;;;;;;;5033010;28;20065;-74
2022/03/09 07:43:22;;;;;;;21.23;9.95;;;;;;;;;;5033065;28;20031;-72
2022/03/09 07:45:48;;;;;;;29.90;10.85;;;;;;;;;;5033262;28;20108;-73
2022/03/09 07:48:14;;;;;;;25.75;11.43;;;;;;;;;;5032935;28;20026;-73
2022/03/09 07:50:40;;;;;;;22.52;11.32;;;;;;;;;;5042021;28;20122;-73
2022/03/09 07:53:07;;;;;;;21.25;11.13;;;;;;;;;;5040967;28;20029;-74
2022/03/09 07:55:34;;;;;;;25.00;11.23;;;;;;;;;;5031422;28;20036;-73
2022/03/09 07:58:00;;;;;;;24.52;10.75;;;;;;;;;;5040385;28;20110;-73
2022/03/09 08:00:27;;;;;;;22.85;10.40;;;;;;;;;;5049915;28;20569;-73
2022/03/09 08:02:53;;;;;;;25.92;11.48;;;;;;;;;;5046721;28;20026;-74
2022/03/09 08:05:19;;;;;;;23.33;11.82;;;;;;;;;;5032462;28;20087;-73
2022/03/09 08:07:45;;;;;;;23.13;11.57;;;;;;;;;;5032335;28;20033;-72
2022/03/09 08:10:12;;;;;;;21.60;10.88;;;;;;;;;;5032387;28;20033;-72
2022/03/09 08:12:38;;;;;;;21.63;10.95;;;;;;;;;;5031916;28;20123;-72
2022/03/09 08:15:04;;;;;;;25.10;10.98;;;;;;;;;;5032609;28;20084;-71
2022/03/09 08:17:30;;;;;;;23.33;10.75;;;;;;;;;;5049825;28;20053;-72
2022/03/09 08:19:56;;;;;;;24.35;11.20;;;;;;;;;;5051992;28;20039;-73
2022/03/09 08:22:22;;;;;;;22.55;11.57;;;;;;;;;;5052372;28;20104;-75
2022/03/09 08:24:49;;;;;;;23.15;11.38;;;;;;;;;;5051541;28;20021;-76
2022/03/09 08:27:15;;;;;;;22.73;11.77;;;;;;;;;;5050336;28;20504;-73
2022/03/09 08:29:41;;;;;;;24.27;11.32;;;;;;;;;;5050784;28;20032;-74
2022/03/09 08:32:08;;;;;;;28.75;12.40;;;;;;;;;;5038889;28;20029;-73
2022/03/09 08:34:34;;;;;;;29.73;12.48;;;;;;;;;;5041440;28;20398;-73
2022/03/09 08:37:00;;;;;;;33.53;12.65;;;;;;;;;;5045359;28;20121;-74
2022/03/09 08:39:26;;;;;;;22.58;12.05;;;;;;;;;;5039379;28;20042;-73
2022/03/09 08:41:52;;;;;;;28.95;13.45;;;;;;;;;;5041999;28;20048;-74
2022/03/09 08:44:20;;;;;;;27.55;12.57;;;;;;;;;;5033196;28;20009;-73
2022/03/09 08:46:46;;;;;;;26.30;13.25;;;;;;;;;;5042403;28;20024;-73
2022/03/09 08:49:12;;;;;;;33.30;14.82;;;;;;;;;;5054516;28;20025;-74
2022/03/09 08:51:38;;;;;;;32.08;14.63;;;;;;;;;;5053518;28;20033;-74
2022/03/09 08:54:04;;;;;;;30.52;13.43;;;;;;;;;;5054650;28;20429;-73
2022/03/09 08:56:30;;;;;;;32.80;14.85;;;;;;;;;;5053165;28;20025;-76
2022/03/09 08:58:56;;;;;;;33.55;14.18;;;;;;;;;;5054625;28;20057;-77
2022/03/09 09:01:23;;;;;;;31.10;14.65;;;;;;;;;;5051581;28;20476;-76
2022/03/09 09:03:49;;;;;;;32.05;15.23;;;;;;;;;;5040202;28;20423;-77
2022/03/09 09:06:15;;;;;;;35.20;15.15;;;;;;;;;;5037128;28;20072;-76
2022/03/09 09:08:41;;;;;;;34.33;14.93;;;;;;;;;;5040916;28;20030;-75
2022/03/09 09:11:08;;;;;;;28.73;14.80;;;;;;;;;;5042290;28;20036;-75
2022/03/09 09:13:34;;;;;;;36.13;15.38;;;;;;;;;;5035141;28;20021;-74
2022/03/09 09:16:00;;;;;;;33.70;16.05;;;;;;;;;;5046617;28;20109;-75
2022/03/09 09:18:26;;;;;;;46.60;16.75;;;;;;;;;;5051794;28;20031;-75
2022/03/09 09:20:53;;;;;;;34.78;16.27;;;;;;;;;;5037477;28;20115;-75
2022/03/09 09:23:19;;;;;;;33.30;15.32;;;;;;;;;;5035365;28;20097;-76
2022/03/09 09:25:46;;;;;;;34.78;15.95;;;;;;;;;;5044864;28;20112;-75
2022/03/09 09:28:12;;;;;;;35.20;15.70;;;;;;;;;;5051230;28;20025;-76
2022/03/09 09:30:39;;;;;;;41.58;16.05;;;;;;;;;;5052401;28;20029;-74
2022/03/09 09:33:05;;;;;;;32.72;15.75;;;;;;;;;;5037824;28;20025;-76
2022/03/09 09:35:32;;;;;;;36.60;16.00;;;;;;;;;;5034847;28;20033;-75
2022/03/09 09:38:06;;;;;;;31.08;15.38;;;;;;;;;;5049487;28;20156;-75
2022/03/09 09:40:32;;;;;;;38.53;16.50;;;;;;;;;;5050992;28;20032;-75
2022/03/09 09:42:58;;;;;;;38.75;16.15;;;;;;;;;;5045957;28;20028;-74
2022/03/09 09:45:24;;;;;;;36.00;16.08;;;;;;;;;;5043085;28;20609;-74
2022/03/09 09:47:51;;;;;;;31.50;14.73;;;;;;;;;;5052358;28;20063;-76
2022/03/09 09:50:17;;;;;;;39.40;16.30;;;;;;;;;;5054444;28;20087;-75
2022/03/09 09:52:44;;;;;;;35.75;16.20;;;;;;;;;;5052027;28;20024;-74
2022/03/09 09:55:11;;;;;;;36.05;15.73;;;;;;;;;;5048453;28;20033;-76
2022/03/09 09:57:38;;;;;;;36.28;17.10;;;;;;;;;;5038339;28;20028;-76
2022/03/09 10:00:05;;;;;;;35.25;17.17;;;;;;;;;;5043305;28;20135;-75
2022/03/09 10:02:31;;;;;;;35.92;15.88;;;;;;;;;;5048024;28;20021;-75
2022/03/09 10:04:57;;;;;;;33.92;17.42;;;;;;;;;;5039847;28;20029;-75
2022/03/09 10:07:23;;;;;;;31.73;15.27;;;;;;;;;;5047068;28;20043;-74
2022/03/09 10:09:49;;;;;;;34.85;15.90;;;;;;;;;;5048402;28;20047;-75
2022/03/09 10:12:25;;;;;;;38.65;16.05;;;;;;;;;;5051221;28;20668;-74
2022/03/09 10:14:52;;;;;;;33.03;17.00;;;;;;;;;;5046370;28;20017;-75
2022/03/09 10:17:19;;;;;;;35.10;17.15;;;;;;;;;;5055475;28;20485;-75
2022/03/09 10:19:46;;;;;;;33.22;15.20;;;;;;;;;;5048841;28;20030;-75
2022/03/09 10:22:30;;;;;;;31.92;16.13;;;;;;;;;;5048957;28;20029;-75
2022/03/09 10:25:19;;;;;;;33.67;16.85;;;;;;;;;;5046747;28;20025;-75
2022/03/09 10:27:48;;;;;;;34.65;16.95;;;;;;;;;;5036360;28;20057;-76
2022/03/09 10:30:16;;;;;;;31.98;16.90;;;;;;;;;;5046471;28;20029;-75
2022/03/09 10:32:58;;;;;;;34.92;15.98;;;;;;;;;;5043747;28;20474;-76
2022/03/09 10:35:30;;;;;;;35.28;17.10;;;;;;;;;;5030411;28;20021;-76
2022/03/09 10:37:57;;;;;;;37.15;17.38;;;;;;;;;;5037221;28;20043;-77
2022/03/09 10:40:23;;;;;;;35.63;18.10;;;;;;;;;;5043430;28;20105;-76
2022/03/09 10:42:49;;;;;;;37.40;17.70;;;;;;;;;;5039068;28;20556;-76
2022/03/09 10:45:17;;;;;;;47.08;18.30;;;;;;;;;;5035144;28;20029;-76
2022/03/09 10:47:43;;;;;;;38.92;18.27;;;;;;;;;;5043681;28;20577;-75
2022/03/09 10:50:11;;;;;;;36.10;17.10;;;;;;;;;;5042478;28;20409;-76
2022/03/09 10:52:44;;;;;;;36.95;18.17;;;;;;;;;;5046982;28;20039;-75
2022/03/09 10:55:43;;;;;;;36.83;17.48;;;;;;;;;;5040176;28;20064;-77
2022/03/09 10:58:10;;;;;;;36.72;18.13;;;;;;;;;;5016829;28;20099;-76
2022/03/09 11:00:36;;;;;;;42.55;18.55;;;;;;;;;;5049256;28;20395;-76
2022/03/09 11:03:07;;;;;;;36.88;18.50;;;;;;;;;;5050269;28;20025;-76
2022/03/09 11:05:33;;;;;;;38.15;17.90;;;;;;;;;;5052049;28;20067;-77
2022/03/09 11:07:59;;;;;;;41.70;18.40;;;;;;;;;;5043514;28;20017;-75
2022/03/09 11:10:26;;;;;;;37.63;18.77;;;;;;;;;;5045597;28;20032;-74
2022/03/09 11:12:52;;;;;;;35.35;17.27;;;;;;;;;;5052674;28;20035;-75
2022/03/09 11:15:20;;;;;;;40.42;18.27;;;;;;;;;;5036334;28;20052;-76
2022/03/09 11:17:48;;;;;;;41.50;18.25;;;;;;;;;;5038700;28;20036;-75
2022/03/09 11:20:17;;;;;;;36.08;18.42;;;;;;;;;;5044223;28;20058;-75
2022/03/09 11:22:43;;;;;;;37.92;19.23;;;;;;;;;;5046031;28;20037;-74
2022/03/09 11:25:10;;;;;;;36.65;19.00;;;;;;;;;;5045466;28;20040;-73
2022/03/09 11:27:47;;;;;;;37.65;19.30;;;;;;;;;;5044775;28;20029;-75
2022/03/09 11:30:26;;;;;;;38.95;18.23;;;;;;;;;;5045451;28;20056;-75
2022/03/09 11:32:54;;;;;;;40.95;18.52;;;;;;;;;;5046423;28;20029;-74
2022/03/09 11:35:32;;;;;;;45.63;19.33;;;;;;;;;;5042675;28;20029;-75
2022/03/09 11:37:58;;;;;;;39.15;19.05;;;;;;;;;;5040446;28;20028;-75
2022/03/09 11:40:26;;;;;;;35.70;18.65;;;;;;;;;;5047335;28;20516;-75
2022/03/09 11:42:52;;;;;;;36.83;18.38;;;;;;;;;;5044298;28;20405;-75
2022/03/09 11:45:20;;;;;;;38.17;18.58;;;;;;;;;;5048673;28;20070;-76
2022/03/09 11:47:56;;;;;;;45.95;19.35;;;;;;;;;;5047391;28;20363;-76
2022/03/09 11:50:25;;;;;;;39.35;19.83;;;;;;;;;;5043799;28;20025;-76
2022/03/09 11:53:09;;;;;;;34.92;17.80;;;;;;;;;;5036442;28;20029;-75
2022/03/09 11:55:35;;;;;;;39.10;18.30;;;;;;;;;;5037012;28;20520;-77
2022/03/09 11:58:05;;;;;;;41.78;19.17;;;;;;;;;;5040842;28;20025;-76
2022/03/09 12:00:34;;;;;;;37.78;18.48;;;;;;;;;;5037936;28;20071;-75
2022/03/09 12:03:01;;;;;;;38.25;18.73;;;;;;;;;;5038120;28;20110;-76
2022/03/09 12:05:29;;;;;;;44.05;19.50;;;;;;;;;;5037525;28;20081;-75
2022/03/09 12:07:57;;;;;;;42.58;19.80;;;;;;;;;;5039078;28;20044;-74
2022/03/09 12:10:43;;;;;;;36.75;18.85;;;;;;;;;;5042198;28;20036;-74
2022/03/09 12:13:23;;;;;;;41.42;19.77;;;;;;;;;;5038880;28;20524;-75
2022/03/09 12:16:16;;;;;;;39.28;20.38;;;;;;;;;;5028989;28;20036;-74
2022/03/09 12:18:47;;;;;;;37.10;18.60;;;;;;;;;;5037832;28;20033;-76
2022/03/09 12:21:14;;;;;;;39.78;18.13;;;;;;;;;;5037658;28;20494;-75
2022/03/09 12:23:58;;;;;;;37.38;19.58;;;;;;;;;;5030164;28;20358;-74
2022/03/09 12:26:43;;;;;;;41.08;19.98;;;;;;;;;;5037842;28;20040;-75
2022/03/09 12:29:21;;;;;;;38.53;18.50;;;;;;;;;;5037003;28;20053;-76
2022/03/09 12:32:05;;;;;;;36.63;18.58;;;;;;;;;;5038096;28;20025;-75
2022/03/09 12:34:35;;;;;;;39.72;18.98;;;;;;;;;;5034480;28;20033;-76
2022/03/09 12:37:02;;;;;;;44.65;20.23;;;;;;;;;;5033339;28;20435;-75
2022/03/09 12:39:28;;;;;;;39.88;18.70;;;;;;;;;;5033004;28;20045;-74
2022/03/09 12:41:55;;;;;;;41.05;19.25;;;;;;;;;;5035238;28;20565;-75
2022/03/09 12:44:26;;;;;;;39.90;18.48;;;;;;;;;;5033927;28;20029;-74
2022/03/09 12:46:53;;;;;;;37.47;18.88;;;;;;;;;;5034646;28;20512;-76
2022/03/09 12:49:30;;;;;;;35.35;18.02;;;;;;;;;;5033361;28;20029;-77
2022/03/09 12:51:59;;;;;;;37.20;18.83;;;;;;;;;;5029853;28;20161;-76
2022/03/09 12:54:35;;;;;;;38.00;19.60;;;;;;;;;;5034997;28;20041;-74
2022/03/09 12:57:17;;;;;;;43.58;19.63;;;;;;;;;;5033133;28;20163;-74
2022/03/09 12:59:52;;;;;;;38.03;18.42;;;;;;;;;;5030668;28;20025;-75
2022/03/09 13:02:22;;;;;;;41.67;18.45;;;;;;;;;;5033455;28;20036;-75
2022/03/09 13:04:57;;;;;;;38.70;17.73;;;;;;;;;;5035892;28;20108;-75
2022/03/09 13:07:23;;;;;;;36.78;18.42;;;;;;;;;;5030022;28;20485;-75
2022/03/09 13:10:01;;;;;;;36.22;19.35;;;;;;;;;;5030210;28;20037;-75
2022/03/09 13:12:27;;;;;;;37.55;18.77;;;;;;;;;;5041278;28;20040;-74
2022/03/09 13:14:53;;;;;;;36.28;18.20;;;;;;;;;;5030335;28;20033;-74
2022/03/09 13:17:20;;;;;;;33.58;17.08;;;;;;;;;;5035640;28;20138;-75
2022/03/09 13:19:46;;;;;;;35.67;18.40;;;;;;;;;;5036460;28;20048;-74
2022/03/09 13:22:12;;;;;;;41.15;20.33;;;;;;;;;;5035130;28;20470;-75
2022/03/09 13:24:38;;;;;;;35.20;18.30;;;;;;;;;;5033981;28;20075;-76
2022/03/09 13:27:16;;;;;;;36.30;17.92;;;;;;;;;;5041375;28;20251;-74
2022/03/09 13:29:44;;;;;;;33.35;18.00;;;;;;;;;;5042647;28;20025;-75
2022/03/09 13:32:11;;;;;;;39.72;19.80;;;;;;;;;;5041752;28;20048;-75
2022/03/09 13:34:39;;;;;;;41.05;19.15;;;;;;;;;;5044803;28;20760;-75
2022/03/09 13:37:18;;;;;;;36.75;18.27;;;;;;;;;;5039939;28;20052;-76
2022/03/09 13:39:51;;;;;;;36.70;18.80;;;;;;;;;;5044115;28;20032;-76
2022/03/09 13:42:23;;;;;;;39.72;19.05;;;;;;;;;;5044331;28;20052;-75
2022/03/09 13:45:07;;;;;;;37.58;17.48;;;;;;;;;;5043535;28;20095;-76
2022/03/09 13:47:45;;;;;;;36.33;18.40;;;;;;;;;;5041612;28;20343;-75
2022/03/09 13:50:48;;;;;;;36.25;18.20;;;;;;;;;;5042414;28;20060;-76
2022/03/09 13:53:15;;;;;;;39.40;18.53;;;;;;;;;;5036393;28;20045;-75
2022/03/09 13:55:42;;;;;;;33.03;17.20;;;;;;;;;;5038010;28;20273;-76
2022/03/09 13:58:13;;;;;;;34.55;17.65;;;;;;;;;;5045932;28;20032;-76
2022/03/09 14:00:40;;;;;;;34.80;16.95;;;;;;;;;;5045022;28;20047;-75
2022/03/09 14:03:11;;;;;;;35.70;16.80;;;;;;;;;;5035663;28;20021;-75
2022/03/09 14:05:37;;;;;;;36.20;17.52;;;;;;;;;;5051279;28;20236;-75
2022/03/09 14:08:04;;;;;;;36.63;16.85;;;;;;;;;;5040164;28;20048;-75
2022/03/09 14:10:32;;;;;;;31.58;16.27;;;;;;;;;;5040711;28;20038;-76
2022/03/09 14:13:06;;;;;;;34.50;17.27;;;;;;;;;;5047170;28;20021;-75
2022/03/09 14:15:32;;;;;;;32.88;15.60;;;;;;;;;;5045963;28;20037;-75
2022/03/09 14:18:00;;;;;;;32.45;16.55;;;;;;;;;;5041970;28;20410;-76
2022/03/09 14:20:27;;;;;;;35.22;17.30;;;;;;;;;;5042101;28;20075;-74
2022/03/09 14:22:53;;;;;;;40.20;17.58;;;;;;;;;;5044138;28;20060;-75
2022/03/09 14:25:19;;;;;;;34.47;17.23;;;;;;;;;;5044136;28;20025;-75
2022/03/09 14:27:45;;;;;;;32.28;17.17;;;;;;;;;;5045208;28;20336;-76
2022/03/09 14:30:14;;;;;;;36.15;17.55;;;;;;;;;;5031830;28;20030;-75